This is the latest recevied weather packets stored in our database for station/object WV8BRW. If no packets are shown the sender has not sent any weather packets the latest 1 day(s).
| Time | Temp. | Humidity | Pressure | Rain* | Wind** | Luminosity | Snow |
|---|---|---|---|---|---|---|---|
| 1778034503 | 17.22° C | 78% | 1006.7 hPa | 0 mm | - | 0 W/m² | - |
| 1778033899 | 17.78° C | 74% | 1006.6 hPa | 0 mm | - | 0 W/m² | - |
| 1778033595 | 17.22° C | 74% | 1006.7 hPa | 0 mm | - | 0 W/m² | - |
| 1778032990 | 17.22° C | 78% | 1006.8 hPa | 0 mm | - | 0 W/m² | - |
| 1778032081 | 17.78° C | 73% | 1006.3 hPa | 0 mm | - | 0 W/m² | - |
| 1778031778 | 17.78° C | 73% | 1006.4 hPa | 0 mm | - | 0 W/m² | - |
| 1778031172 | 17.78° C | 72% | 1006.5 hPa | 0 mm | - | 0 W/m² | - |
| 1778030868 | 17.78° C | 72% | 1006.3 hPa | 0 mm | - | 0 W/m² | - |
| 1778030565 | 17.78° C | 71% | 1006.7 hPa | 0 mm | - | 0 W/m² | - |
| 1778030263 | 17.78° C | 72% | 1006.5 hPa | 0 mm | - | 0 W/m² | - |
| 1778029657 | 18.33° C | 71% | 1006.4 hPa | 0 mm | - | 0 W/m² | - |
| 1778029354 | 18.33° C | 72% | 1006.5 hPa | 0 mm | - | 0 W/m² | - |
| 1778028748 | 18.33° C | 69% | 1006.7 hPa | 0 mm | - | 0 W/m² | - |
| 1778028444 | 18.33° C | 69% | 1006.3 hPa | 0 mm | - | 0 W/m² | - |
| 1778028142 | 18.89° C | 69% | 1006.5 hPa | 0 mm | - | 0 W/m² | - |
| 1778027230 | 19.44° C | 66% | 1006.6 hPa | 0 mm | - | 0 W/m² | - |
| 1778026927 | 19.44° C | 67% | 1006.6 hPa | 0 mm | - | 0 W/m² | - |
| 1778026320 | 20° C | 62% | 1007.1 hPa | 0 mm | - | 0 W/m² | - |
| 1778024806 | 20.56° C | 56% | 1006.8 hPa | 0 mm | - | 9 W/m² | - |
| 1778024503 | 20.56° C | 56% | 1007.2 hPa | 0 mm | - | 17 W/m² | - |
| 1778023595 | 20.56° C | 56% | 1007.2 hPa | 0 mm | - | 13 W/m² | - |
* Rain latest hour (hover to see other rain measurements)
** Current wind speed in m/s (hover to see current wind gust speed)